Time;durP1;ratioP1;P1;durP2;ratioP2;P2;SDS_P1;SDS_P2;PMS_P1;PMS_P2;Temp;Humidity;BMP_temperature;BMP_pressure;BME280_temperature;BME280_humidity;BME280_pressure;Samples;Min_cycle;Max_cycle;Signal;HPM_P1;HPM_P2
2022/01/17 00:00:01;;;;;;;39.57;24.63;;;;;;;;;;5068780;28;20428;-88
2022/01/17 00:02:28;;;;;;;38.23;23.83;;;;;;;;;;5075388;28;20427;-88
2022/01/17 00:04:54;;;;;;;44.90;24.77;;;;;;;;;;5078533;28;20445;-88
2022/01/17 00:07:20;;;;;;;38.83;23.13;;;;;;;;;;5072346;28;20529;-88
2022/01/17 00:09:47;;;;;;;41.47;23.73;;;;;;;;;;5071729;28;20421;-88
2022/01/17 00:12:13;;;;;;;43.70;24.07;;;;;;;;;;5069712;28;20461;-88
2022/01/17 00:14:40;;;;;;;40.53;22.80;;;;;;;;;;5072140;28;20409;-88
2022/01/17 00:17:28;;;;;;;39.97;23.10;;;;;;;;;;5074151;28;21496;-88
2022/01/17 00:19:56;;;;;;;36.80;22.33;;;;;;;;;;5075151;28;20423;-88
2022/01/17 00:22:23;;;;;;;37.93;22.83;;;;;;;;;;5074347;28;20493;-88
2022/01/17 00:24:50;;;;;;;40.70;23.40;;;;;;;;;;5070965;28;20426;-89
2022/01/17 00:27:16;;;;;;;36.97;21.20;;;;;;;;;;5074859;28;20417;-88
2022/01/17 00:29:42;;;;;;;40.07;21.87;;;;;;;;;;5073657;28;20425;-88
2022/01/17 00:32:08;;;;;;;35.20;21.17;;;;;;;;;;5077430;28;21431;-88
2022/01/17 00:34:35;;;;;;;39.30;21.33;;;;;;;;;;5073867;28;20426;-88
2022/01/17 00:37:01;;;;;;;36.17;21.40;;;;;;;;;;5074046;28;20429;-89
2022/01/17 00:39:27;;;;;;;35.07;21.57;;;;;;;;;;5075632;28;20409;-88
2022/01/17 00:41:53;;;;;;;37.23;20.87;;;;;;;;;;5080094;28;20525;-88
2022/01/17 00:44:21;;;;;;;33.47;20.83;;;;;;;;;;5070609;28;20425;-88
2022/01/17 00:46:48;;;;;;;35.13;21.07;;;;;;;;;;5075778;28;20780;-88
2022/01/17 00:49:17;;;;;;;34.80;20.90;;;;;;;;;;5076284;28;20420;-88
2022/01/17 00:51:43;;;;;;;35.40;21.07;;;;;;;;;;5074970;28;20452;-88
2022/01/17 00:54:09;;;;;;;33.47;20.43;;;;;;;;;;5073559;28;20557;-88
2022/01/17 00:56:36;;;;;;;32.63;19.20;;;;;;;;;;5071761;28;20476;-89
2022/01/17 00:59:02;;;;;;;38.40;21.27;;;;;;;;;;5077049;28;21865;-88
2022/01/17 01:01:28;;;;;;;32.63;19.73;;;;;;;;;;5076365;28;20412;-88
2022/01/17 01:03:54;;;;;;;31.50;19.50;;;;;;;;;;5080634;28;20511;-88
2022/01/17 01:06:20;;;;;;;35.07;20.23;;;;;;;;;;5080422;28;21268;-88
2022/01/17 01:08:46;;;;;;;32.77;20.50;;;;;;;;;;5079707;28;20447;-88
2022/01/17 01:11:12;;;;;;;31.70;19.80;;;;;;;;;;5076535;28;20405;-88
2022/01/17 01:13:38;;;;;;;36.13;20.37;;;;;;;;;;5077169;28;20447;-88
2022/01/17 01:29:18;;;;;;;29.97;18.43;;;;;;;;;;5076203;28;20408;-88
2022/01/17 01:31:49;;;;;;;29.63;18.13;;;;;;;;;;5077653;28;20420;-89
2022/01/17 01:34:17;;;;;;;30.43;18.50;;;;;;;;;;5077959;28;20455;-89
2022/01/17 01:36:46;;;;;;;33.07;18.73;;;;;;;;;;5075095;28;20457;-88
2022/01/17 01:39:17;;;;;;;28.90;18.40;;;;;;;;;;5080300;28;20426;-88
2022/01/17 01:41:43;;;;;;;34.30;20.20;;;;;;;;;;5073099;28;20430;-88
2022/01/17 01:44:17;;;;;;;31.60;18.80;;;;;;;;;;5076720;28;21460;-88
2022/01/17 01:46:43;;;;;;;29.83;19.07;;;;;;;;;;5079348;28;20466;-88
2022/01/17 01:49:10;;;;;;;31.50;18.90;;;;;;;;;;5075916;28;20480;-88
2022/01/17 01:51:36;;;;;;;31.23;19.20;;;;;;;;;;5073297;28;20501;-88
2022/01/17 01:54:02;;;;;;;31.50;19.73;;;;;;;;;;5077083;28;20405;-88
2022/01/17 01:56:29;;;;;;;36.43;21.27;;;;;;;;;;5074886;28;20421;-88
2022/01/17 01:58:55;;;;;;;33.60;21.57;;;;;;;;;;5077667;28;20417;-88
2022/01/17 02:01:21;;;;;;;33.67;20.63;;;;;;;;;;5078728;28;21186;-88
2022/01/17 02:03:47;;;;;;;33.53;19.73;;;;;;;;;;5072544;28;21120;-88
2022/01/17 02:06:14;;;;;;;37.93;21.13;;;;;;;;;;5075955;28;20424;-88
2022/01/17 02:08:40;;;;;;;34.17;20.90;;;;;;;;;;5080099;28;20432;-88
2022/01/17 02:11:10;;;;;;;36.50;21.63;;;;;;;;;;5078554;28;20432;-88
2022/01/17 02:13:38;;;;;;;37.10;21.80;;;;;;;;;;5076291;28;20452;-87
2022/01/17 02:16:05;;;;;;;34.27;21.60;;;;;;;;;;5075105;28;20474;-88
2022/01/17 02:18:31;;;;;;;32.77;20.57;;;;;;;;;;5077326;28;20509;-88
2022/01/17 02:23:43;;;;;;;35.70;22.43;;;;;;;;;;5075570;28;20425;-88
2022/01/17 02:26:10;;;;;;;44.70;25.97;;;;;;;;;;5074624;28;20452;-88
2022/01/17 02:28:36;;;;;;;39.17;23.47;;;;;;;;;;5073358;28;20425;-88
2022/01/17 02:31:06;;;;;;;42.43;25.37;;;;;;;;;;5079303;28;20421;-88
2022/01/17 02:33:36;;;;;;;49.23;29.23;;;;;;;;;;5078720;28;20460;-88
2022/01/17 02:36:02;;;;;;;47.70;30.60;;;;;;;;;;5075062;28;20457;-88
2022/01/17 02:38:29;;;;;;;57.20;36.13;;;;;;;;;;5076254;28;20863;-88
2022/01/17 02:40:55;;;;;;;52.53;34.80;;;;;;;;;;5074826;28;20564;-88
2022/01/17 02:43:23;;;;;;;57.30;36.97;;;;;;;;;;5076562;28;21465;-88
2022/01/17 02:48:23;;;;;;;52.10;34.10;;;;;;;;;;5075587;28;20481;-88
2022/01/17 02:50:49;;;;;;;49.40;33.17;;;;;;;;;;5073940;28;20443;-88
2022/01/17 02:53:15;;;;;;;55.63;36.07;;;;;;;;;;5074791;28;21241;-88
2022/01/17 02:55:51;;;;;;;57.67;36.07;;;;;;;;;;5075396;28;20491;-88
2022/01/17 02:58:19;;;;;;;58.57;36.27;;;;;;;;;;5076783;28;20479;-87
2022/01/17 03:00:46;;;;;;;55.07;34.57;;;;;;;;;;5074971;28;21120;-88
2022/01/17 03:03:21;;;;;;;52.80;33.27;;;;;;;;;;5072534;28;20436;-87
2022/01/17 03:05:50;;;;;;;51.07;35.13;;;;;;;;;;5071327;28;20436;-88
2022/01/17 03:08:17;;;;;;;55.20;34.53;;;;;;;;;;5078352;28;20441;-87
2022/01/17 03:10:44;;;;;;;53.97;35.73;;;;;;;;;;5076216;28;20547;-87
2022/01/17 03:13:10;;;;;;;62.50;38.57;;;;;;;;;;5076223;28;20445;-88
2022/01/17 03:15:37;;;;;;;57.20;36.37;;;;;;;;;;5077241;28;20610;-88
2022/01/17 03:18:03;;;;;;;55.20;35.87;;;;;;;;;;5073294;28;20408;-88
2022/01/17 03:20:30;;;;;;;57.37;37.00;;;;;;;;;;5075357;28;20472;-88
2022/01/17 03:22:56;;;;;;;62.73;37.67;;;;;;;;;;5075117;28;20444;-87
2022/01/17 03:25:22;;;;;;;52.20;34.83;;;;;;;;;;5078070;28;20478;-88
2022/01/17 03:27:49;;;;;;;53.43;34.40;;;;;;;;;;5077233;28;21193;-88
2022/01/17 03:30:15;;;;;;;57.90;36.20;;;;;;;;;;5071999;28;20435;-88
2022/01/17 03:32:41;;;;;;;52.20;34.30;;;;;;;;;;5075119;28;20448;-87
2022/01/17 03:35:10;;;;;;;56.47;35.73;;;;;;;;;;5075358;28;20436;-88
2022/01/17 03:37:36;;;;;;;51.93;33.57;;;;;;;;;;5083076;28;20424;-88
2022/01/17 03:40:03;;;;;;;54.70;34.00;;;;;;;;;;5073814;28;20417;-88
2022/01/17 03:42:29;;;;;;;58.07;35.77;;;;;;;;;;5071220;28;20424;-88
2022/01/17 03:44:55;;;;;;;60.00;36.40;;;;;;;;;;5076394;28;21395;-88
2022/01/17 03:47:22;;;;;;;57.87;37.07;;;;;;;;;;5076799;28;20544;-88
2022/01/17 03:49:48;;;;;;;61.73;37.53;;;;;;;;;;5071464;28;20416;-88
2022/01/17 03:52:14;;;;;;;60.07;37.27;;;;;;;;;;5072158;28;20460;-88
2022/01/17 03:54:40;;;;;;;59.10;35.97;;;;;;;;;;5076352;28;20424;-88
2022/01/17 03:57:06;;;;;;;65.43;39.67;;;;;;;;;;5072252;28;20428;-87
2022/01/17 03:59:32;;;;;;;66.93;38.03;;;;;;;;;;5069702;28;21073;-87
2022/01/17 04:01:59;;;;;;;59.63;36.97;;;;;;;;;;5075917;28;20463;-87
2022/01/17 04:04:25;;;;;;;62.13;39.03;;;;;;;;;;5075920;28;20425;-87
2022/01/17 04:06:51;;;;;;;62.33;39.37;;;;;;;;;;5071428;28;20448;-87
2022/01/17 04:09:17;;;;;;;66.23;39.93;;;;;;;;;;5077190;28;20460;-88
2022/01/17 04:11:43;;;;;;;63.00;40.07;;;;;;;;;;5074883;28;20425;-87
2022/01/17 04:14:10;;;;;;;60.63;39.87;;;;;;;;;;5073342;28;20510;-87
2022/01/17 04:16:37;;;;;;;66.57;40.50;;;;;;;;;;5071418;28;20481;-87
2022/01/17 04:19:03;;;;;;;70.40;42.17;;;;;;;;;;5079476;28;20513;-87
2022/01/17 04:21:34;;;;;;;72.27;42.93;;;;;;;;;;5072519;28;20405;-88
2022/01/17 04:24:00;;;;;;;61.57;38.27;;;;;;;;;;5072748;28;20421;-87
2022/01/17 04:26:26;;;;;;;65.53;40.00;;;;;;;;;;5073609;28;20429;-88
2022/01/17 04:28:52;;;;;;;65.90;40.07;;;;;;;;;;5072049;28;20999;-88
2022/01/17 04:31:18;;;;;;;68.27;40.27;;;;;;;;;;5070901;28;20417;-88
2022/01/17 04:33:44;;;;;;;60.43;37.43;;;;;;;;;;5071839;28;20448;-87
2022/01/17 04:36:11;;;;;;;59.73;36.23;;;;;;;;;;5078909;28;20468;-88
2022/01/17 04:38:37;;;;;;;60.50;37.40;;;;;;;;;;5080146;28;21111;-88
2022/01/17 04:41:12;;;;;;;63.20;37.63;;;;;;;;;;5079584;28;20474;-88
2022/01/17 04:46:05;;;;;;;58.83;38.13;;;;;;;;;;5077318;28;20476;-87
2022/01/17 04:48:31;;;;;;;53.57;34.90;;;;;;;;;;5074849;28;20424;-87
2022/01/17 04:51:01;;;;;;;64.13;39.07;;;;;;;;;;5079325;28;20421;-88
2022/01/17 04:53:28;;;;;;;66.77;39.87;;;;;;;;;;5078163;28;20487;-88
2022/01/17 04:55:54;;;;;;;67.07;39.97;;;;;;;;;;5077649;28;20424;-87
2022/01/17 04:58:20;;;;;;;57.83;37.57;;;;;;;;;;5074346;28;21034;-87
2022/01/17 05:00:47;;;;;;;60.33;38.20;;;;;;;;;;5074598;28;20436;-88
2022/01/17 05:03:14;;;;;;;68.03;41.03;;;;;;;;;;5074010;28;20437;-88
2022/01/17 05:05:40;;;;;;;63.67;40.13;;;;;;;;;;5079981;28;20432;-87
2022/01/17 05:08:06;;;;;;;57.47;37.70;;;;;;;;;;5094125;28;20474;-88
2022/01/17 05:10:32;;;;;;;70.37;42.43;;;;;;;;;;5074633;28;21431;-88
2022/01/17 05:12:58;;;;;;;68.30;40.00;;;;;;;;;;5079900;28;20448;-87
2022/01/17 05:16:06;;;;;;;62.43;39.23;;;;;;;;;;5075298;28;20417;-87
2022/01/17 05:20:57;;;;;;;71.80;41.80;;;;;;;;;;5078076;28;21380;-88
2022/01/17 05:23:23;;;;;;;63.23;38.33;;;;;;;;;;5072958;28;20434;-87
2022/01/17 05:25:50;;;;;;;65.87;39.43;;;;;;;;;;5073930;28;21320;-88
2022/01/17 05:28:16;;;;;;;62.30;38.97;;;;;;;;;;5077371;28;20444;-87
2022/01/17 05:30:42;;;;;;;61.83;36.73;;;;;;;;;;5070635;28;21125;-87
2022/01/17 05:33:08;;;;;;;69.30;42.00;;;;;;;;;;5075316;28;20451;-88
2022/01/17 05:35:35;;;;;;;73.20;44.57;;;;;;;;;;5075498;28;20429;-87
2022/01/17 05:38:01;;;;;;;74.90;46.83;;;;;;;;;;5076411;28;20447;-88
2022/01/17 05:40:27;;;;;;;75.00;47.30;;;;;;;;;;5074562;28;20460;-87
2022/01/17 05:42:55;;;;;;;77.60;47.33;;;;;;;;;;5073444;28;20449;-88
2022/01/17 05:45:21;;;;;;;67.43;44.17;;;;;;;;;;5073328;28;20436;-87
2022/01/17 05:47:47;;;;;;;61.80;39.23;;;;;;;;;;5071226;28;21433;-87
2022/01/17 05:50:13;;;;;;;76.43;47.50;;;;;;;;;;5078601;28;20474;-88
2022/01/17 05:52:40;;;;;;;72.17;47.13;;;;;;;;;;5074980;28;21328;-88
2022/01/17 05:55:07;;;;;;;74.23;46.33;;;;;;;;;;5072514;28;20440;-88
2022/01/17 05:57:33;;;;;;;68.47;44.60;;;;;;;;;;5074983;28;20434;-88
2022/01/17 06:00:00;;;;;;;81.23;49.30;;;;;;;;;;5075408;28;20543;-87
2022/01/17 06:02:26;;;;;;;69.30;44.23;;;;;;;;;;5076902;28;20420;-87
2022/01/17 06:04:53;;;;;;;69.97;44.97;;;;;;;;;;5079950;28;20728;-88
2022/01/17 06:07:19;;;;;;;71.03;45.17;;;;;;;;;;5075432;28;20440;-87
2022/01/17 06:09:45;;;;;;;80.40;48.43;;;;;;;;;;5073495;28;21471;-87
2022/01/17 06:12:12;;;;;;;73.00;43.77;;;;;;;;;;5075179;28;20584;-87
2022/01/17 06:14:39;;;;;;;76.07;48.57;;;;;;;;;;5076138;28;20800;-88
2022/01/17 06:17:05;;;;;;;78.40;48.53;;;;;;;;;;5081329;28;20436;-87
2022/01/17 06:19:34;;;;;;;66.53;42.20;;;;;;;;;;5073127;28;20425;-88
2022/01/17 06:22:01;;;;;;;71.97;46.30;;;;;;;;;;5077302;28;20433;-87
2022/01/17 06:24:27;;;;;;;63.13;42.43;;;;;;;;;;5068582;28;20422;-87
2022/01/17 06:26:56;;;;;;;69.53;44.23;;;;;;;;;;5074297;28;20433;-87
2022/01/17 06:29:22;;;;;;;66.87;42.87;;;;;;;;;;5080017;28;20424;-88
2022/01/17 06:31:48;;;;;;;69.50;43.93;;;;;;;;;;5072598;28;20467;-87
2022/01/17 06:34:14;;;;;;;67.23;43.40;;;;;;;;;;5079548;28;20424;-88
2022/01/17 06:36:42;;;;;;;63.37;43.80;;;;;;;;;;5068791;28;20410;-88
2022/01/17 06:39:08;;;;;;;73.50;46.07;;;;;;;;;;5077614;28;20437;-88
2022/01/17 06:41:34;;;;;;;62.50;40.00;;;;;;;;;;5075115;28;20432;-88
2022/01/17 06:44:01;;;;;;;66.13;41.47;;;;;;;;;;5070722;28;20441;-88
2022/01/17 06:46:29;;;;;;;56.47;37.03;;;;;;;;;;5084186;28;20458;-88
2022/01/17 06:48:55;;;;;;;61.90;40.13;;;;;;;;;;5076189;28;20528;-88
2022/01/17 06:51:21;;;;;;;57.00;39.17;;;;;;;;;;5074164;28;21334;-88
2022/01/17 06:53:48;;;;;;;55.43;38.00;;;;;;;;;;5069642;28;20456;-88
2022/01/17 06:56:15;;;;;;;64.60;42.20;;;;;;;;;;5075297;28;20440;-88
2022/01/17 06:58:42;;;;;;;59.50;39.00;;;;;;;;;;5072728;28;21451;-88
2022/01/17 07:01:08;;;;;;;62.33;39.93;;;;;;;;;;5076125;28;21114;-88
2022/01/17 07:03:34;;;;;;;62.17;40.33;;;;;;;;;;5069321;28;21282;-88
2022/01/17 07:06:01;;;;;;;54.23;37.93;;;;;;;;;;5078771;28;20436;-89
2022/01/17 07:08:27;;;;;;;59.80;38.47;;;;;;;;;;5075766;28;20432;-88
2022/01/17 07:10:53;;;;;;;59.47;39.57;;;;;;;;;;5079473;28;20437;-87
2022/01/17 07:13:19;;;;;;;56.67;37.63;;;;;;;;;;5073334;28;20523;-88
2022/01/17 07:15:45;;;;;;;57.20;38.13;;;;;;;;;;5070086;28;20472;-88
2022/01/17 07:18:12;;;;;;;57.03;37.07;;;;;;;;;;5072131;28;20420;-88
2022/01/17 07:20:38;;;;;;;55.43;36.57;;;;;;;;;;5068693;28;21149;-88
2022/01/17 07:23:04;;;;;;;64.87;41.37;;;;;;;;;;5068233;28;20429;-88
2022/01/17 07:25:30;;;;;;;59.50;39.40;;;;;;;;;;5069469;28;20507;-88
2022/01/17 07:27:57;;;;;;;63.73;40.73;;;;;;;;;;5069528;28;20417;-88
2022/01/17 07:30:24;;;;;;;56.07;37.37;;;;;;;;;;5075086;28;20497;-88
2022/01/17 07:32:50;;;;;;;51.73;34.03;;;;;;;;;;5072787;28;20460;-88
2022/01/17 07:35:17;;;;;;;54.13;36.83;;;;;;;;;;5067436;28;20417;-87
2022/01/17 07:37:43;;;;;;;53.93;35.17;;;;;;;;;;5072470;28;20428;-88
2022/01/17 07:40:09;;;;;;;53.13;35.17;;;;;;;;;;5069501;28;20417;-88
2022/01/17 07:42:36;;;;;;;52.03;34.13;;;;;;;;;;5071232;28;20421;-88
2022/01/17 07:45:09;;;;;;;51.80;36.07;;;;;;;;;;5067165;28;20434;-88
2022/01/17 07:50:07;;;;;;;51.50;34.30;;;;;;;;;;5072237;28;20429;-88
2022/01/17 07:52:33;;;;;;;49.53;31.67;;;;;;;;;;5075346;28;20460;-88
2022/01/17 07:54:59;;;;;;;45.43;28.60;;;;;;;;;;5073912;28;20421;-88
2022/01/17 07:57:25;;;;;;;48.97;28.77;;;;;;;;;;5076026;28;20421;-88
2022/01/17 07:59:52;;;;;;;36.33;23.47;;;;;;;;;;5076949;28;20446;-88
2022/01/17 08:02:18;;;;;;;35.23;23.47;;;;;;;;;;5078353;28;20424;-88
2022/01/17 08:04:50;;;;;;;29.13;17.63;;;;;;;;;;5073447;28;20436;-88
2022/01/17 08:07:16;;;;;;;24.43;13.60;;;;;;;;;;5073080;28;20440;-88
2022/01/17 08:09:42;;;;;;;19.93;12.10;;;;;;;;;;5070563;28;20424;-88
2022/01/17 08:12:09;;;;;;;19.77;11.83;;;;;;;;;;5069544;28;20440;-88
2022/01/17 08:14:35;;;;;;;22.10;12.60;;;;;;;;;;5076125;28;20424;-88
2022/01/17 08:17:02;;;;;;;23.30;13.20;;;;;;;;;;5074856;28;20976;-89
2022/01/17 08:19:28;;;;;;;21.30;13.00;;;;;;;;;;5073078;28;20436;-88
2022/01/17 08:21:54;;;;;;;27.93;13.53;;;;;;;;;;5067137;28;21213;-88
2022/01/17 08:24:21;;;;;;;26.73;13.53;;;;;;;;;;5075593;28;20430;-88
2022/01/17 08:26:47;;;;;;;23.97;13.40;;;;;;;;;;5072584;28;20420;-89
2022/01/17 08:29:13;;;;;;;19.77;8.93;;;;;;;;;;5073091;28;20709;-89
2022/01/17 08:31:42;;;;;;;13.33;7.70;;;;;;;;;;5069732;28;20928;-88
2022/01/17 08:34:12;;;;;;;15.47;8.67;;;;;;;;;;5070552;28;20510;-87
2022/01/17 08:36:38;;;;;;;19.77;9.13;;;;;;;;;;5089169;28;20409;-88
2022/01/17 08:39:05;;;;;;;12.53;7.27;;;;;;;;;;5080860;28;20429;-87
2022/01/17 08:41:31;;;;;;;17.07;7.63;;;;;;;;;;5066403;28;20427;-86
2022/01/17 08:43:57;;;;;;;15.17;7.90;;;;;;;;;;5070769;28;20424;-87
2022/01/17 08:46:23;;;;;;;16.73;8.60;;;;;;;;;;5069362;28;20421;-86
2022/01/17 08:48:49;;;;;;;17.57;8.40;;;;;;;;;;5071228;28;20417;-86
2022/01/17 08:51:15;;;;;;;16.33;8.43;;;;;;;;;;5070388;28;20464;-86
2022/01/17 08:53:41;;;;;;;19.77;9.20;;;;;;;;;;5067319;28;20458;-86
2022/01/17 08:56:07;;;;;;;18.13;9.20;;;;;;;;;;5084167;28;20433;-86
2022/01/17 08:58:33;;;;;;;18.83;9.43;;;;;;;;;;5069173;28;20425;-86
2022/01/17 09:00:59;;;;;;;22.60;13.20;;;;;;;;;;5073352;28;20473;-86
2022/01/17 09:03:25;;;;;;;30.90;20.57;;;;;;;;;;5072416;28;20452;-86
2022/01/17 09:05:52;;;;;;;34.73;21.80;;;;;;;;;;5068436;28;21457;-86
2022/01/17 09:08:18;;;;;;;32.07;20.70;;;;;;;;;;5071536;28;20444;-85
2022/01/17 09:10:45;;;;;;;26.70;17.47;;;;;;;;;;5070389;28;20431;-86
2022/01/17 09:13:11;;;;;;;26.23;17.13;;;;;;;;;;5071273;28;20456;-86
2022/01/17 09:15:37;;;;;;;29.73;18.60;;;;;;;;;;5072478;28;20463;-86
2022/01/17 09:18:06;;;;;;;33.87;20.63;;;;;;;;;;5069970;28;20421;-86
2022/01/17 09:20:34;;;;;;;29.30;20.00;;;;;;;;;;5073549;28;20416;-86
2022/01/17 09:23:01;;;;;;;28.33;18.63;;;;;;;;;;5077406;28;20425;-87
2022/01/17 09:25:27;;;;;;;28.00;19.07;;;;;;;;;;5079355;28;20425;-87
2022/01/17 09:27:53;;;;;;;27.63;18.70;;;;;;;;;;5075844;28;20438;-87
2022/01/17 09:30:19;;;;;;;25.07;15.40;;;;;;;;;;5077400;28;20917;-86
2022/01/17 09:32:46;;;;;;;22.57;14.17;;;;;;;;;;5067961;28;20459;-86
2022/01/17 09:35:12;;;;;;;24.17;15.07;;;;;;;;;;5074991;28;20424;-87
2022/01/17 09:37:39;;;;;;;24.67;16.00;;;;;;;;;;5074929;28;20451;-86
2022/01/17 09:40:06;;;;;;;20.87;13.97;;;;;;;;;;5091529;28;20495;-86
2022/01/17 09:42:36;;;;;;;23.60;13.63;;;;;;;;;;5076138;28;20439;-87
2022/01/17 09:45:11;;;;;;;22.37;13.20;;;;;;;;;;5068844;28;20422;-87
2022/01/17 09:47:37;;;;;;;21.03;14.27;;;;;;;;;;5072217;28;20424;-87
2022/01/17 09:50:06;;;;;;;22.43;15.13;;;;;;;;;;5076598;28;20440;-88
2022/01/17 09:52:36;;;;;;;24.80;16.90;;;;;;;;;;5075023;28;20213;-87
2022/01/17 09:55:04;;;;;;;27.17;17.90;;;;;;;;;;5070151;28;20425;-87
2022/01/17 09:57:31;;;;;;;28.83;18.10;;;;;;;;;;5073469;28;20425;-87
2022/01/17 09:59:57;;;;;;;30.10;19.63;;;;;;;;;;5069548;28;20422;-88
2022/01/17 10:02:23;;;;;;;31.63;18.80;;;;;;;;;;5071873;28;21324;-87
2022/01/17 10:04:51;;;;;;;33.80;21.10;;;;;;;;;;5077200;28;20428;-87
2022/01/17 10:07:17;;;;;;;28.53;19.73;;;;;;;;;;5074205;28;20442;-90
2022/01/17 10:09:54;;;;;;;29.73;19.73;;;;;;;;;;5075306;28;20459;-89
2022/01/17 10:12:20;;;;;;;37.47;23.93;;;;;;;;;;5073722;28;20971;-89
2022/01/17 10:15:04;;;;;;;43.00;27.70;;;;;;;;;;5076204;28;20500;-90
2022/01/17 10:17:47;;;;;;;46.73;26.63;;;;;;;;;;5066912;28;20183;-86
2022/01/17 10:20:16;;;;;;;35.70;21.97;;;;;;;;;;5073132;28;20457;-85
2022/01/17 10:22:58;;;;;;;35.30;21.07;;;;;;;;;;5079662;28;20437;-86
2022/01/17 10:25:49;;;;;;;38.13;26.33;;;;;;;;;;5072210;28;20460;-88
2022/01/17 10:36:45;;;;;;;42.97;25.67;;;;;;;;;;5073053;28;20201;-87
2022/01/17 10:39:11;;;;;;;31.47;20.63;;;;;;;;;;5073078;28;20433;-87
2022/01/17 10:41:37;;;;;;;31.47;22.37;;;;;;;;;;5074702;28;21208;-87
2022/01/17 10:44:03;;;;;;;33.83;22.90;;;;;;;;;;5073476;28;20210;-87
2022/01/17 10:46:29;;;;;;;42.57;27.20;;;;;;;;;;5068895;28;21002;-88
2022/01/17 10:48:56;;;;;;;37.93;26.47;;;;;;;;;;5069303;28;20190;-87
2022/01/17 10:51:33;;;;;;;40.10;26.13;;;;;;;;;;5074189;28;20186;-87
2022/01/17 10:53:59;;;;;;;40.10;25.77;;;;;;;;;;5072483;28;20998;-87
2022/01/17 10:56:26;;;;;;;33.90;22.03;;;;;;;;;;5062878;28;20212;-88
2022/01/17 10:59:03;;;;;;;25.67;17.23;;;;;;;;;;5071100;28;20176;-88
2022/01/17 11:01:36;;;;;;;25.23;17.97;;;;;;;;;;5064155;28;20172;-86
2022/01/17 11:04:04;;;;;;;27.00;16.83;;;;;;;;;;5068545;28;20183;-85
2022/01/17 11:06:30;;;;;;;24.10;17.10;;;;;;;;;;5073094;28;20175;-88
2022/01/17 11:09:05;;;;;;;25.00;17.40;;;;;;;;;;5076617;28;20187;-88
2022/01/17 11:11:32;;;;;;;27.07;18.40;;;;;;;;;;5072737;28;20975;-88
2022/01/17 11:14:01;;;;;;;24.70;17.67;;;;;;;;;;5069852;28;20207;-88
2022/01/17 11:16:30;;;;;;;25.37;16.80;;;;;;;;;;5076069;28;20168;-88
2022/01/17 11:19:20;;;;;;;26.03;17.10;;;;;;;;;;5070225;28;20186;-88
2022/01/17 11:21:45;;;;;;;30.53;17.17;;;;;;;;;;5073093;28;20180;-88
2022/01/17 11:24:11;;;;;;;26.53;17.40;;;;;;;;;;5073943;28;20274;-86
2022/01/17 11:26:37;;;;;;;25.57;16.13;;;;;;;;;;5078935;28;20499;-88
2022/01/17 11:29:04;;;;;;;21.27;15.00;;;;;;;;;;5079352;28;21014;-88
2022/01/17 11:31:30;;;;;;;27.27;14.23;;;;;;;;;;5078137;28;20174;-86
2022/01/17 11:33:57;;;;;;;20.50;14.67;;;;;;;;;;5071531;28;20219;-86
2022/01/17 11:36:24;;;;;;;20.27;14.50;;;;;;;;;;5068040;28;20171;-86
2022/01/17 11:38:54;;;;;;;16.87;10.17;;;;;;;;;;5073433;28;20231;-88
2022/01/17 11:41:41;;;;;;;16.90;9.43;;;;;;;;;;5071121;28;21016;-88
2022/01/17 11:44:08;;;;;;;16.83;10.10;;;;;;;;;;5068455;28;20961;-88
2022/01/17 11:46:36;;;;;;;16.90;10.53;;;;;;;;;;5069127;28;20183;-88
2022/01/17 11:49:07;;;;;;;16.83;11.30;;;;;;;;;;5073277;28;20243;-90
2022/01/17 11:51:47;;;;;;;18.50;11.77;;;;;;;;;;5073822;28;20235;-90
2022/01/17 11:54:17;;;;;;;19.90;11.73;;;;;;;;;;5077239;28;20351;-89
2022/01/17 11:56:52;;;;;;;14.10;9.83;;;;;;;;;;5072440;28;20210;-90
2022/01/17 11:59:34;;;;;;;14.93;9.47;;;;;;;;;;5076152;28;20181;-89
2022/01/17 12:02:20;;;;;;;15.73;9.60;;;;;;;;;;5072464;28;20179;-88
2022/01/17 12:05:15;;;;;;;14.80;9.00;;;;;;;;;;5080751;28;21034;-89
2022/01/17 12:07:42;;;;;;;13.80;8.80;;;;;;;;;;5073548;28;20275;-89
2022/01/17 12:10:23;;;;;;;18.97;9.67;;;;;;;;;;5082836;28;20176;-89
2022/01/17 12:13:08;;;;;;;14.30;9.20;;;;;;;;;;5083926;28;20977;-89
2022/01/17 12:16:06;;;;;;;15.50;9.33;;;;;;;;;;5085993;28;20179;-87
2022/01/17 12:19:03;;;;;;;13.47;8.97;;;;;;;;;;5071273;28;20259;-87
2022/01/17 12:22:05;;;;;;;16.27;9.50;;;;;;;;;;5073332;28;20734;-87
2022/01/17 12:24:38;;;;;;;14.00;8.77;;;;;;;;;;5073254;28;20182;-87
2022/01/17 12:27:09;;;;;;;12.80;8.90;;;;;;;;;;5078846;28;20186;-87
2022/01/17 12:29:42;;;;;;;13.70;10.00;;;;;;;;;;5074373;28;20180;-87
2022/01/17 12:32:20;;;;;;;17.83;10.70;;;;;;;;;;5075421;28;20182;-87
2022/01/17 12:34:46;;;;;;;18.47;11.10;;;;;;;;;;5072922;28;21520;-87
2022/01/17 12:37:31;;;;;;;18.30;10.90;;;;;;;;;;5068158;28;20178;-87
2022/01/17 12:40:12;;;;;;;15.50;10.23;;;;;;;;;;5073334;28;20178;-86
2022/01/17 12:42:48;;;;;;;17.80;11.23;;;;;;;;;;5068875;28;20259;-87
2022/01/17 12:45:21;;;;;;;16.10;11.07;;;;;;;;;;5067718;28;20980;-87
2022/01/17 12:47:48;;;;;;;20.93;11.37;;;;;;;;;;5070072;28;20211;-87
2022/01/17 12:50:14;;;;;;;16.77;11.97;;;;;;;;;;5071366;28;21111;-88
2022/01/17 12:52:40;;;;;;;17.80;12.03;;;;;;;;;;5072724;28;20199;-88
2022/01/17 12:55:06;;;;;;;22.57;13.10;;;;;;;;;;5074786;28;20188;-88
2022/01/17 12:57:38;;;;;;;18.33;11.97;;;;;;;;;;5072923;28;20859;-87
2022/01/17 13:00:05;;;;;;;18.77;11.23;;;;;;;;;;5070200;28;20842;-87
2022/01/17 13:02:42;;;;;;;20.13;11.37;;;;;;;;;;5075714;28;20179;-87
2022/01/17 13:05:09;;;;;;;16.77;10.30;;;;;;;;;;5062472;28;21003;-87
2022/01/17 13:07:36;;;;;;;16.17;9.10;;;;;;;;;;5073247;28;20707;-87
2022/01/17 13:10:02;;;;;;;14.80;8.13;;;;;;;;;;5072866;28;20870;-87
2022/01/17 13:12:29;;;;;;;12.33;7.70;;;;;;;;;;5071973;28;20203;-88
2022/01/17 13:14:58;;;;;;;12.13;7.13;;;;;;;;;;5072864;28;20188;-87
2022/01/17 13:17:24;;;;;;;15.53;7.43;;;;;;;;;;5070671;28;20178;-87
2022/01/17 13:19:53;;;;;;;14.20;8.03;;;;;;;;;;5073210;28;20283;-87
2022/01/17 13:22:19;;;;;;;13.07;7.47;;;;;;;;;;5068460;28;20513;-87
2022/01/17 13:24:54;;;;;;;15.80;8.43;;;;;;;;;;5069061;28;21040;-87
2022/01/17 13:27:20;;;;;;;14.07;7.77;;;;;;;;;;5076926;28;20174;-87
2022/01/17 13:29:46;;;;;;;14.77;7.63;;;;;;;;;;5076557;28;20244;-87
2022/01/17 13:32:14;;;;;;;14.93;7.20;;;;;;;;;;5071680;28;20914;-87
2022/01/17 13:34:41;;;;;;;15.20;7.87;;;;;;;;;;5074216;28;20179;-88
2022/01/17 13:37:08;;;;;;;15.77;7.60;;;;;;;;;;5072681;28;20179;-87
2022/01/17 13:39:35;;;;;;;11.83;7.10;;;;;;;;;;5081530;28;20581;-87
2022/01/17 13:42:03;;;;;;;12.33;7.20;;;;;;;;;;5070641;28;20171;-87
2022/01/17 13:44:30;;;;;;;12.60;7.00;;;;;;;;;;5078947;28;20187;-87
2022/01/17 13:47:01;;;;;;;10.33;6.47;;;;;;;;;;5078850;28;20874;-87
2022/01/17 13:49:30;;;;;;;14.10;7.10;;;;;;;;;;5059761;28;20573;-87
2022/01/17 13:51:56;;;;;;;10.77;6.63;;;;;;;;;;5071213;28;20926;-87
2022/01/17 13:54:24;;;;;;;12.30;7.50;;;;;;;;;;5072977;28;20198;-87
2022/01/17 13:56:50;;;;;;;13.30;6.60;;;;;;;;;;5069381;28;20228;-87
2022/01/17 13:59:17;;;;;;;10.67;6.93;;;;;;;;;;5075629;28;20266;-87
2022/01/17 14:01:43;;;;;;;13.43;7.00;;;;;;;;;;5077417;28;20205;-87
2022/01/17 14:04:16;;;;;;;12.10;7.10;;;;;;;;;;5074587;28;20823;-87
2022/01/17 14:06:43;;;;;;;13.43;7.43;;;;;;;;;;5073451;28;20671;-87
2022/01/17 14:09:09;;;;;;;11.20;6.77;;;;;;;;;;5070387;28;20191;-87
2022/01/17 14:11:40;;;;;;;14.30;6.90;;;;;;;;;;5086964;27;20232;-87
2022/01/17 14:14:08;;;;;;;11.93;7.17;;;;;;;;;;5073464;28;20211;-87
2022/01/17 14:16:37;;;;;;;13.60;7.30;;;;;;;;;;5072907;28;20558;-87
2022/01/17 14:19:07;;;;;;;14.10;6.80;;;;;;;;;;5073160;28;20183;-87
2022/01/17 14:21:52;;;;;;;13.33;6.67;;;;;;;;;;5070718;28;20171;-87
2022/01/17 14:24:20;;;;;;;13.23;7.23;;;;;;;;;;5069147;28;20266;-87
2022/01/17 14:26:48;;;;;;;12.87;8.00;;;;;;;;;;5072297;28;20181;-88
2022/01/17 14:29:15;;;;;;;12.37;7.00;;;;;;;;;;5071902;28;20186;-87
2022/01/17 14:31:43;;;;;;;14.90;7.70;;;;;;;;;;5072730;28;20178;-87
2022/01/17 14:34:11;;;;;;;12.87;7.50;;;;;;;;;;5071029;28;20202;-87
2022/01/17 14:36:37;;;;;;;18.73;8.00;;;;;;;;;;5074732;28;20187;-88
2022/01/17 14:39:05;;;;;;;14.13;7.57;;;;;;;;;;5072790;28;20261;-87
2022/01/17 14:41:35;;;;;;;11.53;7.17;;;;;;;;;;5074968;28;20228;-88
2022/01/17 14:44:13;;;;;;;14.20;7.83;;;;;;;;;;5070819;28;20944;-88
2022/01/17 14:46:46;;;;;;;15.00;8.27;;;;;;;;;;5070871;28;20247;-87
2022/01/17 14:49:17;;;;;;;13.70;7.23;;;;;;;;;;5072107;28;20179;-88
2022/01/17 14:51:49;;;;;;;15.10;8.20;;;;;;;;;;5069891;28;20260;-88
2022/01/17 14:54:23;;;;;;;15.63;8.40;;;;;;;;;;5072534;28;20203;-88
2022/01/17 14:59:41;;;;;;;16.73;8.67;;;;;;;;;;5072556;28;20224;-87
2022/01/17 15:02:17;;;;;;;16.83;9.70;;;;;;;;;;5070317;28;20266;-88